Tunis, Tunisia
Current Conditions -  °F | °C
As of 12:00 AM on Saturday 25 Oct 2014 (Local Time) from DTTA Reporting Station
Few Clouds Few Clouds  
Wind Chill: 18°   Ceiling: Unl
Heat Index: 18°   Visibility: 6mi
Dew Point: 13°   Wind: 6mph
Humidity: 73%   Direction: 260°W
Pressure: 30"   Gusts: NA
Location:  36.84°N, 10.22°E
Report Text: DTTA 242300Z 26005KT 9999 FEW026TCU 18/13 Q1016 NOSIG
Loading
Personal Weather Stations






























Interactive Weather Map New forecast layout! Learn more

10-Day Weather Forecast

Advertisements
Track Severe Weather on mobile